createdAt,value
2023-03-16T00:01:37.912Z,2.38
2023-03-16T00:04:40.039Z,2.25
2023-03-16T00:07:43.032Z,2.58
2023-03-16T00:10:47.456Z,1.90
2023-03-16T00:13:49.544Z,1.65
2023-03-16T00:16:51.938Z,2.30
2023-03-16T00:19:55.964Z,2.10
2023-03-16T00:22:57.964Z,1.95
2023-03-16T00:26:03.262Z,2.80
2023-03-16T00:29:05.492Z,1.77
2023-03-16T00:32:07.956Z,2.47
2023-03-16T00:35:10.093Z,2.53
2023-03-16T00:38:12.229Z,2.40
2023-03-16T00:41:15.938Z,2.20
2023-03-16T00:44:18.006Z,2.47
2023-03-16T00:47:20.022Z,2.50
2023-03-16T00:50:22.947Z,2.67
2023-03-16T00:53:25.048Z,2.50
2023-03-16T00:56:27.160Z,2.40
2023-03-16T00:59:30.506Z,1.60
2023-03-16T01:02:32.693Z,2.38
2023-03-16T01:05:39.844Z,1.90
2023-03-16T01:08:42.282Z,2.03
2023-03-16T01:11:45.185Z,2.28
2023-03-16T01:14:48.048Z,2.10
2023-03-16T01:17:50.057Z,1.52
2023-03-16T01:20:52.371Z,1.48
2023-03-16T01:23:54.663Z,1.98
2023-03-16T01:26:57.045Z,2.30
2023-03-16T01:30:00.253Z,2.10
2023-03-16T01:33:02.550Z,2.20
2023-03-16T01:36:11.591Z,2.30
2023-03-16T01:39:33.783Z,2.00
2023-03-16T01:43:01.345Z,2.05
2023-03-16T01:46:06.078Z,2.17
2023-03-16T01:49:33.317Z,2.40
2023-03-16T01:52:38.236Z,2.15
2023-03-16T01:55:41.905Z,2.05
2023-03-16T01:58:46.060Z,1.90
2023-03-16T02:01:49.381Z,1.65
2023-03-16T02:05:42.382Z,2.33
2023-03-16T02:08:49.131Z,2.20
2023-03-16T02:11:52.304Z,2.28
2023-03-16T02:14:56.241Z,1.92
2023-03-16T02:18:00.295Z,1.85
2023-03-16T02:21:12.450Z,2.03
2023-03-16T02:24:14.447Z,2.35
2023-03-16T02:27:35.276Z,1.77
2023-03-16T02:30:37.583Z,1.88
2023-03-16T02:33:41.727Z,2.00
2023-03-16T02:36:46.884Z,1.90
2023-03-16T02:39:49.733Z,1.75
2023-03-16T02:43:02.922Z,1.92
2023-03-16T02:46:08.772Z,2.28
2023-03-16T02:49:20.026Z,1.60
2023-03-16T02:52:22.281Z,1.52
2023-03-16T02:55:24.592Z,2.20
2023-03-16T02:58:27.431Z,2.00
2023-03-16T03:01:29.600Z,1.05
2023-03-16T03:04:33.161Z,1.60
2023-03-16T03:07:35.628Z,1.60
2023-03-16T03:10:40.781Z,1.67
2023-03-16T03:13:44.706Z,1.35
2023-03-16T03:16:52.404Z,1.90
2023-03-16T03:19:54.809Z,1.27
2023-03-16T03:22:57.045Z,1.40
2023-03-16T03:26:00.112Z,1.58
2023-03-16T03:29:03.379Z,1.73
2023-03-16T03:32:05.841Z,1.15
2023-03-16T03:35:09.265Z,1.35
2023-03-16T03:38:11.789Z,1.77
2023-03-16T03:41:15.707Z,1.35
2023-03-16T03:44:18.113Z,1.20
2023-03-16T03:47:20.568Z,1.33
2023-03-16T03:50:22.772Z,1.40
2023-03-16T03:53:44.770Z,1.20
2023-03-16T03:56:55.373Z,1.52
2023-03-16T03:59:57.727Z,1.33
2023-03-16T04:02:59.870Z,1.35
2023-03-16T04:06:09.744Z,1.15
2023-03-16T04:09:11.878Z,1.38
2023-03-16T04:12:14.603Z,1.08
2023-03-16T04:15:18.238Z,1.67
2023-03-16T04:18:38.656Z,1.15
2023-03-16T04:21:41.859Z,1.02
2023-03-16T04:24:44.761Z,1.50
2023-03-16T04:27:48.634Z,1.50
2023-03-16T04:30:56.796Z,1.15
2023-03-16T04:34:08.534Z,2.05
2023-03-16T04:37:10.915Z,1.70
2023-03-16T04:40:16.902Z,2.40
2023-03-16T04:43:24.826Z,2.20
2023-03-16T04:46:31.413Z,1.50
2023-03-16T04:49:37.160Z,1.60
2023-03-16T04:52:40.343Z,1.90
2023-03-16T04:55:46.408Z,1.55
2023-03-16T04:58:50.769Z,1.48
2023-03-16T05:01:54.788Z,1.60
2023-03-16T05:04:57.471Z,1.52
2023-03-16T05:08:00.023Z,2.13
2023-03-16T05:11:04.259Z,2.20
2023-03-16T05:14:11.559Z,1.50
2023-03-16T05:17:28.309Z,1.85
2023-03-16T05:20:31.510Z,1.92
2023-03-16T05:23:36.427Z,2.10
2023-03-16T05:26:39.141Z,1.63
2023-03-16T05:29:46.318Z,2.00
2023-03-16T05:32:48.857Z,2.08
2023-03-16T05:35:52.449Z,1.75
2023-03-16T05:38:54.817Z,1.42
2023-03-16T05:42:13.725Z,1.77
2023-03-16T05:45:25.037Z,2.08
2023-03-16T05:48:41.000Z,1.83
2023-03-16T05:51:44.189Z,1.80
2023-03-16T05:54:47.070Z,1.67
2023-03-16T05:57:50.068Z,1.85
2023-03-16T06:00:52.813Z,2.17
2023-03-16T06:04:05.539Z,1.98
2023-03-16T06:07:11.759Z,2.45
2023-03-16T06:10:14.901Z,2.15
2023-03-16T06:13:17.432Z,2.40
2023-03-16T06:16:19.945Z,2.40
2023-03-16T06:19:22.276Z,1.80
2023-03-16T06:22:30.411Z,2.00
2023-03-16T06:25:34.173Z,2.10
2023-03-16T06:28:38.633Z,1.95
2023-03-16T06:31:41.065Z,1.90
2023-03-16T06:34:43.356Z,1.50
2023-03-16T06:37:45.621Z,1.75
2023-03-16T06:41:06.245Z,2.42
2023-03-16T06:44:10.859Z,2.20
2023-03-16T06:47:18.325Z,1.70
2023-03-16T06:50:21.318Z,1.60
2023-03-16T06:53:23.462Z,1.67
2023-03-16T06:56:28.085Z,1.98
2023-03-16T06:59:31.582Z,2.25
2023-03-16T07:02:35.908Z,2.15
2023-03-16T07:05:39.658Z,1.80
2023-03-16T07:08:42.656Z,2.53
2023-03-16T07:11:45.856Z,1.80
2023-03-16T07:14:50.804Z,2.40
2023-03-16T07:17:57.186Z,2.00
2023-03-16T07:21:00.620Z,1.83
2023-03-16T07:24:02.824Z,1.65
2023-03-16T07:27:12.630Z,1.90
2023-03-16T07:30:16.392Z,1.85
2023-03-16T07:33:21.722Z,2.30
2023-03-16T07:36:24.343Z,2.53
2023-03-16T07:39:32.449Z,2.03
2023-03-16T07:42:41.788Z,1.20
2023-03-16T07:45:55.031Z,1.70
2023-03-16T07:48:57.303Z,1.90
2023-03-16T07:51:59.525Z,1.60
2023-03-16T07:55:10.483Z,1.48
2023-03-16T07:58:13.714Z,1.40
2023-03-16T08:01:18.374Z,0.98
2023-03-16T08:04:20.557Z,0.70
2023-03-16T08:07:22.781Z,1.98
2023-03-16T08:10:36.711Z,1.77
2023-03-16T08:13:47.141Z,1.33
2023-03-16T08:16:49.936Z,1.50
2023-03-16T08:19:53.571Z,2.25
2023-03-16T08:22:57.939Z,2.30
2023-03-16T08:26:08.832Z,0.98
2023-03-16T08:29:12.258Z,2.07
2023-03-16T08:32:14.806Z,1.88
2023-03-16T08:35:20.214Z,1.50
2023-03-16T08:38:23.405Z,1.83
2023-03-16T08:41:30.890Z,2.03
2023-03-16T08:44:37.132Z,1.27
2023-03-16T08:47:40.699Z,1.23
2023-03-16T08:50:44.330Z,1.63
2023-03-16T08:53:47.223Z,1.60
2023-03-16T08:56:49.556Z,1.30
2023-03-16T08:59:51.828Z,1.20
2023-03-16T09:02:54.881Z,1.42
2023-03-16T09:06:05.331Z,1.00
2023-03-16T09:09:09.723Z,1.80
2023-03-16T09:12:12.888Z,0.73
2023-03-16T09:15:17.814Z,1.30
2023-03-16T09:18:20.860Z,1.20
2023-03-16T09:21:23.516Z,1.23
2023-03-16T09:24:26.122Z,1.40
2023-03-16T09:27:28.333Z,1.20
2023-03-16T09:30:30.976Z,1.30
2023-03-16T09:33:33.969Z,0.90
2023-03-16T09:36:36.275Z,1.25
2023-03-16T09:39:38.589Z,1.38
2023-03-16T09:43:02.488Z,0.80
2023-03-16T09:46:06.595Z,1.08
2023-03-16T09:49:12.697Z,0.80
2023-03-16T09:52:27.441Z,1.10
2023-03-16T09:55:38.037Z,0.82
2023-03-16T09:58:41.010Z,0.90
2023-03-16T10:01:58.481Z,1.42
2023-03-16T10:05:06.425Z,1.00
2023-03-16T10:08:20.449Z,0.90
2023-03-16T10:11:41.555Z,1.25
2023-03-16T10:14:56.317Z,1.45
2023-03-16T10:18:16.518Z,1.35
2023-03-16T10:21:19.681Z,1.13
2023-03-16T10:24:50.306Z,1.17
2023-03-16T10:27:53.152Z,1.25
2023-03-16T10:30:58.754Z,1.20
2023-03-16T10:34:06.111Z,1.42
2023-03-16T10:37:13.934Z,1.10
2023-03-16T10:40:20.447Z,1.45
2023-03-16T10:43:22.975Z,1.50
2023-03-16T10:46:27.890Z,1.20
2023-03-16T10:49:42.252Z,0.90
2023-03-16T10:52:48.229Z,1.00
2023-03-16T10:55:51.579Z,0.80
2023-03-16T10:58:54.654Z,0.95
2023-03-16T11:01:57.246Z,0.90
2023-03-16T11:04:59.374Z,1.02
2023-03-16T11:08:13.629Z,0.90
2023-03-16T11:11:25.553Z,1.52
2023-03-16T11:14:29.945Z,1.52
2023-03-16T11:17:39.957Z,1.10
2023-03-16T11:20:42.167Z,1.40
2023-03-16T11:23:51.371Z,1.13
2023-03-16T11:27:00.264Z,1.10
2023-03-16T11:30:29.073Z,1.10
2023-03-16T11:33:35.582Z,1.47
2023-03-16T11:36:49.827Z,1.35
2023-03-16T11:39:57.826Z,2.28
2023-03-16T11:43:06.223Z,0.88
2023-03-16T11:46:31.741Z,1.05
2023-03-16T11:49:53.001Z,1.23
2023-03-16T11:53:28.784Z,1.20
2023-03-16T11:56:47.277Z,1.15
2023-03-16T12:00:01.072Z,0.73
2023-03-16T12:03:25.019Z,1.05
2023-03-16T12:06:45.699Z,1.08
2023-03-16T12:10:03.329Z,1.75
2023-03-16T12:13:23.078Z,1.88
2023-03-16T12:16:48.743Z,1.45
2023-03-16T12:20:05.189Z,1.23
2023-03-16T12:23:15.064Z,1.42
2023-03-16T12:26:19.498Z,1.13
2023-03-16T12:29:32.833Z,1.10
2023-03-16T12:33:00.248Z,1.50
2023-03-16T12:36:11.066Z,1.08
2023-03-16T12:39:51.835Z,1.45
2023-03-16T12:43:16.050Z,1.17
2023-03-16T12:46:35.982Z,1.38
2023-03-16T12:49:41.409Z,1.80
2023-03-16T12:52:46.979Z,2.15
2023-03-16T12:55:50.323Z,1.27
2023-03-16T12:58:57.568Z,1.63
2023-03-16T13:02:01.184Z,1.63
2023-03-16T13:05:12.810Z,1.67
2023-03-16T13:08:18.223Z,1.92
2023-03-16T13:11:22.069Z,2.15
2023-03-16T13:14:42.690Z,2.20
2023-03-16T13:17:44.936Z,1.90
2023-03-16T13:20:57.436Z,1.70
2023-03-16T13:24:12.413Z,1.95
2023-03-16T13:27:30.874Z,1.77
2023-03-16T13:30:48.821Z,2.38
2023-03-16T13:33:57.017Z,2.08
2023-03-16T13:37:01.708Z,2.20
2023-03-16T13:40:05.157Z,1.63
2023-03-16T13:43:15.924Z,2.45
2023-03-16T13:46:22.438Z,2.33
2023-03-16T13:49:25.000Z,2.35
2023-03-16T13:52:30.293Z,1.80
2023-03-16T13:55:35.930Z,2.15
2023-03-16T13:58:42.792Z,1.92
2023-03-16T14:01:48.901Z,2.45
2023-03-16T14:04:51.049Z,2.70
2023-03-16T14:07:55.969Z,1.50
2023-03-16T14:11:01.961Z,2.67
2023-03-16T14:14:16.118Z,2.58
2023-03-16T14:17:23.612Z,2.15
2023-03-16T14:20:26.184Z,1.95
2023-03-16T14:23:38.574Z,2.83
2023-03-16T14:26:48.498Z,2.00
2023-03-16T14:30:17.498Z,2.10
2023-03-16T14:33:31.856Z,2.25
2023-03-16T14:36:36.320Z,2.45
2023-03-16T14:39:42.858Z,1.98
2023-03-16T14:42:45.869Z,2.00
2023-03-16T14:45:48.370Z,1.95
2023-03-16T14:48:50.854Z,2.95
2023-03-16T14:51:56.563Z,1.95
2023-03-16T14:54:59.271Z,1.83
2023-03-16T14:58:01.845Z,1.70
2023-03-16T15:01:05.096Z,2.60
2023-03-16T15:04:07.645Z,1.60
2023-03-16T15:07:30.717Z,2.45
2023-03-16T15:10:35.837Z,2.03
2023-03-16T15:13:40.908Z,0.98
2023-03-16T15:16:43.263Z,1.73
2023-03-16T15:19:45.340Z,1.35
2023-03-16T15:22:50.143Z,1.75
2023-03-16T15:25:58.476Z,1.77
2023-03-16T15:29:00.722Z,1.85
2023-03-16T15:32:15.813Z,1.65
2023-03-16T15:35:18.356Z,0.57
2023-03-16T15:38:29.231Z,0.68
2023-03-16T15:41:41.366Z,1.52
2023-03-16T15:44:47.400Z,0.70
2023-03-16T15:47:55.444Z,1.38
2023-03-16T15:51:08.655Z,2.35
2023-03-16T15:54:12.308Z,1.98
2023-03-16T15:57:16.240Z,1.90
2023-03-16T16:00:35.110Z,2.47
2023-03-16T16:03:37.261Z,2.83
2023-03-16T16:06:39.827Z,2.53
2023-03-16T16:09:42.490Z,2.72
2023-03-16T16:12:51.565Z,3.03
2023-03-16T16:15:54.769Z,2.70
2023-03-16T16:18:57.094Z,2.75
2023-03-16T16:21:59.450Z,3.00
2023-03-16T16:25:01.778Z,2.70
2023-03-16T16:28:12.948Z,3.45
2023-03-16T16:31:15.593Z,3.72
2023-03-16T16:34:21.589Z,2.70
2023-03-16T16:37:24.532Z,2.63
2023-03-16T16:40:38.728Z,2.75
2023-03-16T16:43:47.232Z,3.17
2023-03-16T16:46:50.947Z,1.65
2023-03-16T16:49:53.214Z,2.70
2023-03-16T16:52:55.672Z,2.00
2023-03-16T16:55:57.988Z,1.65
2023-03-16T16:59:12.298Z,1.95
2023-03-16T17:02:48.437Z,2.92
2023-03-16T17:05:55.111Z,2.17
2023-03-16T17:08:57.592Z,2.22
2023-03-16T17:12:02.028Z,1.60
2023-03-16T17:15:33.028Z,1.55
2023-03-16T17:18:35.196Z,2.30
2023-03-16T17:21:38.249Z,1.80
2023-03-16T17:24:40.909Z,1.73
2023-03-16T17:27:47.527Z,1.92
2023-03-16T17:30:51.057Z,1.58
2023-03-16T17:33:54.719Z,2.03
2023-03-16T17:36:57.000Z,1.67
2023-03-16T17:39:59.567Z,2.38
2023-03-16T17:43:01.636Z,2.33
2023-03-16T17:46:07.113Z,2.15
2023-03-16T17:49:13.841Z,2.65
2023-03-16T17:52:25.662Z,2.00
2023-03-16T17:55:28.917Z,2.15
2023-03-16T17:58:32.562Z,2.88
2023-03-16T18:01:38.004Z,2.10
2023-03-16T18:04:40.599Z,2.58
2023-03-16T18:07:42.683Z,1.88
2023-03-16T18:10:48.929Z,2.42
2023-03-16T18:13:58.548Z,1.58
2023-03-16T18:17:03.647Z,1.80
2023-03-16T18:20:11.071Z,1.70
2023-03-16T18:23:17.129Z,2.60
2023-03-16T18:26:19.713Z,2.78
2023-03-16T18:29:25.085Z,2.33
2023-03-16T18:32:30.142Z,2.75
2023-03-16T18:35:33.219Z,2.72
2023-03-16T18:38:38.639Z,2.30
2023-03-16T18:41:41.868Z,2.00
2023-03-16T18:44:43.920Z,2.28
2023-03-16T18:47:53.935Z,2.35
2023-03-16T18:50:56.650Z,2.63
2023-03-16T18:53:59.120Z,1.80
2023-03-16T18:57:04.506Z,3.33
2023-03-16T19:00:07.454Z,2.42
2023-03-16T19:03:19.644Z,2.95
2023-03-16T19:06:29.645Z,1.90
2023-03-16T19:09:32.663Z,2.72
2023-03-16T19:12:34.748Z,2.40
2023-03-16T19:15:36.784Z,2.45
2023-03-16T19:18:44.843Z,1.90
2023-03-16T19:21:49.440Z,2.40
2023-03-16T19:24:54.705Z,2.75
2023-03-16T19:27:57.551Z,2.20
2023-03-16T19:31:01.783Z,2.00
2023-03-16T19:34:04.025Z,1.63
2023-03-16T19:37:06.558Z,1.98
2023-03-16T19:40:15.600Z,1.80
2023-03-16T19:43:19.793Z,2.17
2023-03-16T19:46:30.364Z,1.80
2023-03-16T19:49:32.727Z,1.48
2023-03-16T19:52:34.815Z,1.92
2023-03-16T19:55:38.314Z,1.50
2023-03-16T19:58:41.847Z,2.10
2023-03-16T20:01:44.154Z,2.58
2023-03-16T20:04:46.719Z,1.20
2023-03-16T20:07:49.297Z,1.88
2023-03-16T20:10:52.038Z,1.80
2023-03-16T20:13:55.558Z,2.05
2023-03-16T20:16:58.344Z,1.58
2023-03-16T20:20:00.705Z,2.35
2023-03-16T20:23:02.964Z,1.73
2023-03-16T20:26:15.795Z,2.28
2023-03-16T20:29:38.022Z,1.80
2023-03-16T20:32:42.931Z,1.73
2023-03-16T20:35:46.337Z,1.90
2023-03-16T20:38:48.759Z,1.60
2023-03-16T20:41:51.681Z,2.38
2023-03-16T20:44:53.800Z,1.65
2023-03-16T20:47:55.850Z,2.17
2023-03-16T20:51:00.174Z,2.70
2023-03-16T20:54:03.260Z,2.65
2023-03-16T20:57:09.490Z,2.25
2023-03-16T21:00:21.713Z,2.38
2023-03-16T21:03:27.708Z,2.38
2023-03-16T21:06:33.819Z,2.33
2023-03-16T21:09:36.303Z,2.50
2023-03-16T21:12:42.573Z,2.50
2023-03-16T21:15:45.109Z,2.33
2023-03-16T21:18:48.932Z,2.40
2023-03-16T21:21:51.682Z,2.53
2023-03-16T21:24:54.898Z,3.22
2023-03-16T21:28:00.952Z,2.55
2023-03-16T21:31:03.150Z,2.20
2023-03-16T21:34:05.907Z,3.00
2023-03-16T21:37:15.681Z,2.10
2023-03-16T21:40:22.182Z,2.00
2023-03-16T21:43:24.469Z,2.65
2023-03-16T21:46:28.325Z,2.55
2023-03-16T21:49:31.393Z,2.60
2023-03-16T21:52:34.260Z,2.53
2023-03-16T21:55:37.113Z,2.80
2023-03-16T21:58:39.284Z,1.45
2023-03-16T22:01:54.664Z,2.38
2023-03-16T22:05:02.825Z,2.80
2023-03-16T22:08:15.039Z,2.17
2023-03-16T22:11:34.016Z,3.47
2023-03-16T22:14:42.187Z,2.17
2023-03-16T22:17:44.352Z,1.90
2023-03-16T22:20:46.678Z,1.90
2023-03-16T22:23:48.965Z,2.45
2023-03-16T22:26:52.108Z,2.30
2023-03-16T22:29:55.020Z,2.25
2023-03-16T22:33:00.339Z,1.92
2023-03-16T22:36:08.504Z,2.13
2023-03-16T22:39:13.116Z,2.70
2023-03-16T22:42:39.256Z,2.13
2023-03-16T22:45:42.443Z,2.10
2023-03-16T22:48:44.543Z,2.35
2023-03-16T22:51:47.410Z,2.25
2023-03-16T22:54:49.582Z,2.55
2023-03-16T22:57:58.522Z,2.10
2023-03-16T23:01:07.096Z,2.08
2023-03-16T23:04:32.742Z,1.85
2023-03-16T23:07:35.935Z,2.00
2023-03-16T23:10:38.160Z,2.78
2023-03-16T23:13:40.363Z,1.60
2023-03-16T23:16:43.433Z,2.08
2023-03-16T23:19:46.315Z,2.00
2023-03-16T23:22:48.935Z,2.28
2023-03-16T23:25:51.089Z,2.50
2023-03-16T23:28:55.465Z,2.33
2023-03-16T23:31:57.968Z,2.55
2023-03-16T23:34:59.980Z,2.30
2023-03-16T23:38:02.000Z,2.85
2023-03-16T23:41:04.262Z,1.80
2023-03-16T23:44:07.995Z,2.05
2023-03-16T23:47:11.386Z,2.30
2023-03-16T23:50:14.509Z,2.13
2023-03-16T23:53:19.001Z,1.90
2023-03-16T23:56:22.644Z,3.03
2023-03-16T23:59:25.944Z,2.17
